sensor_id;sensor_type;location;lat;lon;timestamp;pressure;altitude;pressure_sealevel;temperature;humidity
78667;BME280;67983;59.830;30.198;2023-03-23T00:01:12;99699.16;;;7.90;66.99
78667;BME280;67983;59.830;30.198;2023-03-23T00:03:41;99703.84;;;7.87;67.00
78667;BME280;67983;59.830;30.198;2023-03-23T00:06:10;99699.91;;;7.92;67.15
78667;BME280;67983;59.830;30.198;2023-03-23T00:08:45;99708.44;;;7.96;66.73
78667;BME280;67983;59.830;30.198;2023-03-23T00:11:18;99699.69;;;7.95;66.95
78667;BME280;67983;59.830;30.198;2023-03-23T00:13:47;99706.56;;;7.98;66.81
78667;BME280;67983;59.830;30.198;2023-03-23T00:16:16;99691.44;;;8.00;67.05
78667;BME280;67983;59.830;30.198;2023-03-23T00:18:45;99691.69;;;7.97;67.07
78667;BME280;67983;59.830;30.198;2023-03-23T00:21:13;99689.34;;;7.92;67.42
78667;BME280;67983;59.830;30.198;2023-03-23T00:23:42;99688.59;;;7.90;67.33
78667;BME280;67983;59.830;30.198;2023-03-23T00:26:15;99673.84;;;7.88;67.80
78667;BME280;67983;59.830;30.198;2023-03-23T00:28:43;99684.41;;;7.88;67.86
78667;BME280;67983;59.830;30.198;2023-03-23T00:31:12;99666.34;;;7.82;67.93
78667;BME280;67983;59.830;30.198;2023-03-23T00:33:41;99651.53;;;7.79;68.26
78667;BME280;67983;59.830;30.198;2023-03-23T00:36:10;99665.59;;;7.79;68.46
78667;BME280;67983;59.830;30.198;2023-03-23T00:38:40;99661.81;;;7.84;68.08
78667;BME280;67983;59.830;30.198;2023-03-23T00:41:11;99672.47;;;7.82;68.20
78667;BME280;67983;59.830;30.198;2023-03-23T00:43:43;99666.34;;;7.82;67.98
78667;BME280;67983;59.830;30.198;2023-03-23T00:46:10;99659.34;;;7.80;68.18
78667;BME280;67983;59.830;30.198;2023-03-23T00:48:38;99654.06;;;7.80;68.27
78667;BME280;67983;59.830;30.198;2023-03-23T00:51:11;99642.66;;;7.80;68.38
78667;BME280;67983;59.830;30.198;2023-03-23T00:53:41;99654.06;;;7.80;68.65
78667;BME280;67983;59.830;30.198;2023-03-23T00:56:09;99647.03;;;7.81;68.20
78667;BME280;67983;59.830;30.198;2023-03-23T00:58:36;99631.38;;;7.78;68.62
78667;BME280;67983;59.830;30.198;2023-03-23T01:01:04;99631.50;;;7.76;68.42
78667;BME280;67983;59.830;30.198;2023-03-23T01:03:57;99624.75;;;7.72;68.50
78667;BME280;67983;59.830;30.198;2023-03-23T01:06:27;99622.97;;;7.73;68.92
78667;BME280;67983;59.830;30.198;2023-03-23T01:08:58;99631.94;;;7.70;69.19
78667;BME280;67983;59.830;30.198;2023-03-23T01:11:26;99630.03;;;7.72;69.10
78667;BME280;67983;59.830;30.198;2023-03-23T01:13:53;99588.63;;;7.73;68.72
78667;BME280;67983;59.830;30.198;2023-03-23T01:16:21;99562.22;;;7.73;69.11
78667;BME280;67983;59.830;30.198;2023-03-23T01:18:48;99587.69;;;7.74;68.75
78667;BME280;67983;59.830;30.198;2023-03-23T01:21:41;99585.25;;;7.71;68.94
78667;BME280;67983;59.830;30.198;2023-03-23T01:24:12;99565.22;;;7.68;69.10
78667;BME280;67983;59.830;30.198;2023-03-23T01:26:39;99560.78;;;7.69;69.16
78667;BME280;67983;59.830;30.198;2023-03-23T01:29:08;99559.81;;;7.70;68.78
78667;BME280;67983;59.830;30.198;2023-03-23T01:31:35;99548.53;;;7.68;68.84
78667;BME280;67983;59.830;30.198;2023-03-23T01:34:06;99557.78;;;7.73;68.94
78667;BME280;67983;59.830;30.198;2023-03-23T01:36:33;99556.00;;;7.74;68.67
78667;BME280;67983;59.830;30.198;2023-03-23T01:39:04;99551.44;;;7.76;68.66
78667;BME280;67983;59.830;30.198;2023-03-23T01:41:35;99547.84;;;7.77;68.60
78667;BME280;67983;59.830;30.198;2023-03-23T01:44:08;99547.94;;;7.75;68.89
78667;BME280;67983;59.830;30.198;2023-03-23T01:47:01;99561.56;;;7.82;68.49
78667;BME280;67983;59.830;30.198;2023-03-23T01:49:31;99554.38;;;7.84;68.87
78667;BME280;67983;59.830;30.198;2023-03-23T01:52:02;99548.00;;;7.87;68.83
78667;BME280;67983;59.830;30.198;2023-03-23T01:54:36;99547.06;;;7.88;68.45
78667;BME280;67983;59.830;30.198;2023-03-23T01:57:13;99540.81;;;7.89;68.61
78667;BME280;67983;59.830;30.198;2023-03-23T01:59:45;99532.06;;;7.88;68.36
78667;BME280;67983;59.830;30.198;2023-03-23T02:02:19;99526.53;;;7.91;68.47
78667;BME280;67983;59.830;30.198;2023-03-23T02:04:47;99522.22;;;7.90;68.81
78667;BME280;67983;59.830;30.198;2023-03-23T02:07:18;99516.94;;;7.90;68.65
78667;BME280;67983;59.830;30.198;2023-03-23T02:09:49;99511.53;;;7.92;68.76
78667;BME280;67983;59.830;30.198;2023-03-23T02:12:19;99510.94;;;7.88;68.65
78667;BME280;67983;59.830;30.198;2023-03-23T02:14:48;99495.94;;;7.89;68.77
78667;BME280;67983;59.830;30.198;2023-03-23T02:17:20;99492.44;;;7.88;68.99
78667;BME280;67983;59.830;30.198;2023-03-23T02:20:07;99496.75;;;7.89;69.02
78667;BME280;67983;59.830;30.198;2023-03-23T02:22:51;99489.69;;;7.90;69.48
78667;BME280;67983;59.830;30.198;2023-03-23T02:26:04;99484.41;;;7.90;69.62
78667;BME280;67983;59.830;30.198;2023-03-23T02:29:06;99483.56;;;7.89;69.29
78667;BME280;67983;59.830;30.198;2023-03-23T02:31:52;99466.88;;;7.89;69.64
78667;BME280;67983;59.830;30.198;2023-03-23T02:34:27;99477.31;;;7.90;69.82
78667;BME280;67983;59.830;30.198;2023-03-23T02:37:00;99467.84;;;7.88;70.04
78667;BME280;67983;59.830;30.198;2023-03-23T02:39:31;99461.72;;;7.87;70.33
78667;BME280;67983;59.830;30.198;2023-03-23T02:42:05;99454.50;;;7.89;70.24
78667;BME280;67983;59.830;30.198;2023-03-23T02:44:38;99446.59;;;7.89;70.00
78667;BME280;67983;59.830;30.198;2023-03-23T02:47:12;99451.16;;;7.87;70.36
78667;BME280;67983;59.830;30.198;2023-03-23T02:49:46;99443.09;;;7.89;69.93
78667;BME280;67983;59.830;30.198;2023-03-23T02:52:18;99447.44;;;7.90;69.99
78667;BME280;67983;59.830;30.198;2023-03-23T02:54:51;99450.78;;;7.92;70.40
78667;BME280;67983;59.830;30.198;2023-03-23T02:57:22;99427.84;;;7.92;69.98
78667;BME280;67983;59.830;30.198;2023-03-23T02:59:53;99432.31;;;7.92;70.10
78667;BME280;67983;59.830;30.198;2023-03-23T03:02:23;99433.97;;;7.93;69.63
78667;BME280;67983;59.830;30.198;2023-03-23T03:05:00;99429.78;;;7.90;70.06
78667;BME280;67983;59.830;30.198;2023-03-23T03:07:48;99444.44;;;7.94;69.92
78667;BME280;67983;59.830;30.198;2023-03-23T03:10:23;99426.06;;;7.93;70.12
78667;BME280;67983;59.830;30.198;2023-03-23T03:12:57;99423.66;;;7.90;70.38
78667;BME280;67983;59.830;30.198;2023-03-23T03:15:34;99428.22;;;7.88;70.29
78667;BME280;67983;59.830;30.198;2023-03-23T03:18:10;99417.06;;;7.84;70.46
78667;BME280;67983;59.830;30.198;2023-03-23T03:20:44;99415.50;;;7.82;70.55
78667;BME280;67983;59.830;30.198;2023-03-23T03:23:15;99408.28;;;7.84;70.79
78667;BME280;67983;59.830;30.198;2023-03-23T03:25:46;99402.28;;;7.82;71.15
78667;BME280;67983;59.830;30.198;2023-03-23T03:28:20;99402.28;;;7.82;71.26
78667;BME280;67983;59.830;30.198;2023-03-23T03:30:53;99395.19;;;7.82;71.01
78667;BME280;67983;59.830;30.198;2023-03-23T03:33:23;99397.84;;;7.82;71.42
78667;BME280;67983;59.830;30.198;2023-03-23T03:35:59;99385.47;;;7.83;71.00
78667;BME280;67983;59.830;30.198;2023-03-23T03:38:29;99387.16;;;7.84;71.09
78667;BME280;67983;59.830;30.198;2023-03-23T03:41:06;99390.66;;;7.84;71.16
78667;BME280;67983;59.830;30.198;2023-03-23T03:43:33;99384.28;;;7.87;71.69
78667;BME280;67983;59.830;30.198;2023-03-23T03:46:06;99385.13;;;7.87;71.14
78667;BME280;67983;59.830;30.198;2023-03-23T03:48:34;99381.41;;;7.90;71.55
78667;BME280;67983;59.830;30.198;2023-03-23T03:51:03;99377.91;;;7.89;71.21
78667;BME280;67983;59.830;30.198;2023-03-23T03:53:33;99372.63;;;7.89;71.30
78667;BME280;67983;59.830;30.198;2023-03-23T03:56:01;99380.69;;;7.88;71.45
78667;BME280;67983;59.830;30.198;2023-03-23T03:58:36;99373.72;;;7.87;71.26
78667;BME280;67983;59.830;30.198;2023-03-23T04:01:24;99369.41;;;7.86;71.54
78667;BME280;67983;59.830;30.198;2023-03-23T04:03:53;99362.31;;;7.86;71.97
78667;BME280;67983;59.830;30.198;2023-03-23T04:06:29;99361.97;;;7.91;71.74
78667;BME280;67983;59.830;30.198;2023-03-23T04:09:00;99350.56;;;7.90;71.73
78667;BME280;67983;59.830;30.198;2023-03-23T04:11:32;99350.31;;;7.93;71.73
78667;BME280;67983;59.830;30.198;2023-03-23T04:14:19;99342.91;;;7.98;71.93
78667;BME280;67983;59.830;30.198;2023-03-23T04:16:47;99345.16;;;8.03;71.35
78667;BME280;67983;59.830;30.198;2023-03-23T04:19:23;99346.59;;;8.07;71.43
78667;BME280;67983;59.830;30.198;2023-03-23T04:22:16;99342.16;;;8.07;71.78
78667;BME280;67983;59.830;30.198;2023-03-23T04:24:44;99340.47;;;8.06;71.56
78667;BME280;67983;59.830;30.198;2023-03-23T04:27:16;99337.84;;;8.06;71.71
78667;BME280;67983;59.830;30.198;2023-03-23T04:29:44;99336.63;;;8.10;71.80
78667;BME280;67983;59.830;30.198;2023-03-23T04:32:36;99332.09;;;8.13;71.53
78667;BME280;67983;59.830;30.198;2023-03-23T04:35:09;99327.41;;;8.16;71.57
78667;BME280;67983;59.830;30.198;2023-03-23T04:37:43;99322.59;;;8.21;70.96
78667;BME280;67983;59.830;30.198;2023-03-23T04:40:39;99325.25;;;8.21;71.19
78667;BME280;67983;59.830;30.198;2023-03-23T04:43:23;99317.06;;;8.24;70.85
78667;BME280;67983;59.830;30.198;2023-03-23T04:46:02;99324.03;;;8.25;71.32
78667;BME280;67983;59.830;30.198;2023-03-23T04:49:09;99323.69;;;8.30;71.10
78667;BME280;67983;59.830;30.198;2023-03-23T04:51:41;99315.63;;;8.31;70.67
78667;BME280;67983;59.830;30.198;2023-03-23T04:54:57;99318.28;;;8.31;70.76
78667;BME280;67983;59.830;30.198;2023-03-23T04:57:27;99315.50;;;8.33;70.73
78667;BME280;67983;59.830;30.198;2023-03-23T05:00:14;99312.53;;;8.37;71.12
78667;BME280;67983;59.830;30.198;2023-03-23T05:02:48;99314.69;;;8.44;71.08
78667;BME280;67983;59.830;30.198;2023-03-23T05:05:23;99323.22;;;8.47;71.02
78667;BME280;67983;59.830;30.198;2023-03-23T05:07:52;99318.06;;;8.46;71.25
78667;BME280;67983;59.830;30.198;2023-03-23T05:10:26;99332.25;;;8.45;71.18
78667;BME280;67983;59.830;30.198;2023-03-23T05:13:03;99341.84;;;8.46;71.26
78667;BME280;67983;59.830;30.198;2023-03-23T05:15:30;99332.13;;;8.46;71.52
78667;BME280;67983;59.830;30.198;2023-03-23T05:17:58;99329.34;;;8.48;71.36
78667;BME280;67983;59.830;30.198;2023-03-23T05:20:27;99330.19;;;8.48;71.70
78667;BME280;67983;59.830;30.198;2023-03-23T05:23:00;99330.44;;;8.45;71.83
78667;BME280;67983;59.830;30.198;2023-03-23T05:25:35;99320.69;;;8.46;71.88
78667;BME280;67983;59.830;30.198;2023-03-23T05:28:10;99320.56;;;8.47;71.93
78667;BME280;67983;59.830;30.198;2023-03-23T05:30:44;99327.41;;;8.50;72.33
78667;BME280;67983;59.830;30.198;2023-03-23T05:33:15;99324.53;;;8.53;72.10
78667;BME280;67983;59.830;30.198;2023-03-23T05:35:50;99322.59;;;8.55;71.83
78667;BME280;67983;59.830;30.198;2023-03-23T05:38:24;99321.41;;;8.59;71.97
78667;BME280;67983;59.830;30.198;2023-03-23T05:40:58;99313.22;;;8.62;71.79
78667;BME280;67983;59.830;30.198;2023-03-23T05:43:31;99328.19;;;8.73;71.75
78667;BME280;67983;59.830;30.198;2023-03-23T05:46:10;99322.56;;;8.77;71.90
78667;BME280;67983;59.830;30.198;2023-03-23T05:48:43;99330.13;;;8.82;71.36
78667;BME280;67983;59.830;30.198;2023-03-23T05:51:16;99339.59;;;8.84;71.40
78667;BME280;67983;59.830;30.198;2023-03-23T05:53:47;99335.63;;;8.90;71.17
78667;BME280;67983;59.830;30.198;2023-03-23T05:56:18;99346.69;;;8.95;71.15
78667;BME280;67983;59.830;30.198;2023-03-23T05:59:00;99342.09;;;8.97;71.13
78667;BME280;67983;59.830;30.198;2023-03-23T06:01:32;99344.63;;;8.98;70.73
78667;BME280;67983;59.830;30.198;2023-03-23T06:04:27;99355.31;;;8.97;70.77
78667;BME280;67983;59.830;30.198;2023-03-23T06:07:04;99354.75;;;8.93;71.21
78667;BME280;67983;59.830;30.198;2023-03-23T06:09:37;99355.31;;;8.97;71.11
78667;BME280;67983;59.830;30.198;2023-03-23T06:12:24;99360.38;;;9.00;70.83
78667;BME280;67983;59.830;30.198;2023-03-23T06:15:14;99383.47;;;8.98;70.78
78667;BME280;67983;59.830;30.198;2023-03-23T06:18:01;99363.06;;;8.89;70.99
78667;BME280;67983;59.830;30.198;2023-03-23T06:21:01;99373.84;;;8.97;71.29
78667;BME280;67983;59.830;30.198;2023-03-23T06:23:48;99378.03;;;8.99;71.22
78667;BME280;67983;59.830;30.198;2023-03-23T06:26:20;99370.34;;;9.08;70.98
78667;BME280;67983;59.830;30.198;2023-03-23T06:28:56;99389.44;;;9.11;70.89
78667;BME280;67983;59.830;30.198;2023-03-23T06:31:27;99385.84;;;9.12;70.80
78667;BME280;67983;59.830;30.198;2023-03-23T06:33:55;99379.44;;;9.15;70.77
78667;BME280;67983;59.830;30.198;2023-03-23T06:36:25;99385.44;;;9.17;71.06
78667;BME280;67983;59.830;30.198;2023-03-23T06:39:05;99394.84;;;9.21;70.71
78667;BME280;67983;59.830;30.198;2023-03-23T06:41:53;99388.19;;;9.26;70.76
78667;BME280;67983;59.830;30.198;2023-03-23T06:44:24;99378.91;;;9.32;70.31
78667;BME280;67983;59.830;30.198;2023-03-23T06:46:52;99383.44;;;9.41;70.30
78667;BME280;67983;59.830;30.198;2023-03-23T06:49:34;99378.34;;;9.49;70.24
78667;BME280;67983;59.830;30.198;2023-03-23T06:52:17;99378.31;;;9.61;69.96
78667;BME280;67983;59.830;30.198;2023-03-23T06:54:45;99377.28;;;9.73;69.19
78667;BME280;67983;59.830;30.198;2023-03-23T06:57:15;99387.97;;;9.82;68.90
78667;BME280;67983;59.830;30.198;2023-03-23T06:59:49;99402.09;;;9.93;68.66
78667;BME280;67983;59.830;30.198;2023-03-23T07:02:18;99393.38;;;10.02;68.05
78667;BME280;67983;59.830;30.198;2023-03-23T07:04:51;99393.88;;;10.16;68.09
78667;BME280;67983;59.830;30.198;2023-03-23T07:07:25;99390.38;;;10.37;67.24
78667;BME280;67983;59.830;30.198;2023-03-23T07:10:09;99401.75;;;10.48;66.68
78667;BME280;67983;59.830;30.198;2023-03-23T07:12:38;99409.63;;;10.60;65.75
78667;BME280;67983;59.830;30.198;2023-03-23T07:15:10;99395.81;;;10.66;65.13
78667;BME280;67983;59.830;30.198;2023-03-23T07:17:41;99409.34;;;10.63;64.96
78667;BME280;67983;59.830;30.198;2023-03-23T07:20:17;99419.13;;;10.62;64.71
78667;BME280;67983;59.830;30.198;2023-03-23T07:22:45;99416.13;;;10.56;65.02
78667;BME280;67983;59.830;30.198;2023-03-23T07:29:47;99428.75;;;10.63;64.42
78667;BME280;67983;59.830;30.198;2023-03-23T07:32:29;99422.34;;;10.66;64.33
78667;BME280;67983;59.830;30.198;2023-03-23T07:34:57;99433.56;;;10.79;64.09
78667;BME280;67983;59.830;30.198;2023-03-23T07:37:33;99427.72;;;10.85;63.63
78667;BME280;67983;59.830;30.198;2023-03-23T07:40:01;99429.38;;;10.86;63.51
78667;BME280;67983;59.830;30.198;2023-03-23T07:42:46;99409.00;;;10.87;62.82
78667;BME280;67983;59.830;30.198;2023-03-23T07:45:28;99414.19;;;10.98;62.85
78667;BME280;67983;59.830;30.198;2023-03-23T07:51:22;99426.56;;;11.28;61.83
78667;BME280;67983;59.830;30.198;2023-03-23T07:53:52;99432.88;;;11.36;61.20
78667;BME280;67983;59.830;30.198;2023-03-23T07:56:40;99418.31;;;11.31;60.97
78667;BME280;67983;59.830;30.198;2023-03-23T07:59:12;99416.94;;;11.46;60.47
78667;BME280;67983;59.830;30.198;2023-03-23T08:01:41;99428.28;;;11.58;60.16
78667;BME280;67983;59.830;30.198;2023-03-23T08:04:29;99438.06;;;11.67;59.74
78667;BME280;67983;59.830;30.198;2023-03-23T08:07:09;99432.47;;;11.70;58.61
78667;BME280;67983;59.830;30.198;2023-03-23T08:09:49;99433.47;;;11.69;58.58
78667;BME280;67983;59.830;30.198;2023-03-23T08:12:54;99424.22;;;11.73;58.44
78667;BME280;67983;59.830;30.198;2023-03-23T08:15:40;99421.84;;;11.70;58.08
78667;BME280;67983;59.830;30.198;2023-03-23T08:18:17;99416.53;;;11.60;57.54
78667;BME280;67983;59.830;30.198;2023-03-23T08:20:53;99419.19;;;11.41;58.26
78667;BME280;67983;59.830;30.198;2023-03-23T08:23:38;99421.66;;;11.33;58.14
78667;BME280;67983;59.830;30.198;2023-03-23T08:26:33;99434.09;;;11.32;57.85
78667;BME280;67983;59.830;30.198;2023-03-23T08:29:21;99412.88;;;11.32;58.18
78667;BME280;67983;59.830;30.198;2023-03-23T08:31:49;99431.75;;;11.39;57.90
78667;BME280;67983;59.830;30.198;2023-03-23T08:34:34;99425.59;;;11.38;58.01
78667;BME280;67983;59.830;30.198;2023-03-23T08:37:22;99445.19;;;11.37;57.89
78667;BME280;67983;59.830;30.198;2023-03-23T08:40:12;99444.06;;;11.40;57.74
78667;BME280;67983;59.830;30.198;2023-03-23T08:55:07;99465.09;;;12.01;55.27
78667;BME280;67983;59.830;30.198;2023-03-23T08:57:57;99434.56;;;12.05;54.45
78667;BME280;67983;59.830;30.198;2023-03-23T09:00:45;99431.09;;;12.05;54.11
78667;BME280;67983;59.830;30.198;2023-03-23T09:16:07;99426.69;;;12.70;53.34
78667;BME280;67983;59.830;30.198;2023-03-23T09:18:37;99444.13;;;12.92;52.27
78667;BME280;67983;59.830;30.198;2023-03-23T09:21:05;99435.47;;;12.90;51.51
78667;BME280;67983;59.830;30.198;2023-03-23T09:23:34;99427.97;;;12.66;51.99
78667;BME280;67983;59.830;30.198;2023-03-23T09:26:04;99431.78;;;12.63;51.91
78667;BME280;67983;59.830;30.198;2023-03-23T09:28:33;99416.16;;;12.78;51.30
78667;BME280;67983;59.830;30.198;2023-03-23T09:31:00;99422.88;;;12.82;51.12
78667;BME280;67983;59.830;30.198;2023-03-23T09:33:32;99421.34;;;12.79;50.12
78667;BME280;67983;59.830;30.198;2023-03-23T09:36:00;99446.06;;;12.62;50.09
78667;BME280;67983;59.830;30.198;2023-03-23T09:38:29;99429.03;;;12.45;50.59
78667;BME280;67983;59.830;30.198;2023-03-23T09:41:14;99417.13;;;12.40;50.77
78667;BME280;67983;59.830;30.198;2023-03-23T09:44:01;99431.09;;;12.61;51.07
78667;BME280;67983;59.830;30.198;2023-03-23T09:46:57;99417.16;;;12.77;51.16
78667;BME280;67983;59.830;30.198;2023-03-23T09:49:32;99395.84;;;13.04;50.68
78667;BME280;67983;59.830;30.198;2023-03-23T09:52:27;99444.94;;;13.02;49.49
78667;BME280;67983;59.830;30.198;2023-03-23T09:54:59;99407.44;;;12.85;48.66
78667;BME280;67983;59.830;30.198;2023-03-23T09:57:29;99411.34;;;12.91;48.68
78667;BME280;67983;59.830;30.198;2023-03-23T10:00:06;99405.81;;;13.02;48.98
78667;BME280;67983;59.830;30.198;2023-03-23T10:02:52;99398.22;;;13.07;48.82
78667;BME280;67983;59.830;30.198;2023-03-23T10:05:34;99395.44;;;13.27;48.65
78667;BME280;67983;59.830;30.198;2023-03-23T10:08:09;99417.91;;;13.60;48.29
78667;BME280;67983;59.830;30.198;2023-03-23T10:10:48;99403.34;;;13.90;47.32
78667;BME280;67983;59.830;30.198;2023-03-23T10:13:28;99417.94;;;14.21;46.93
78667;BME280;67983;59.830;30.198;2023-03-23T10:15:59;99405.22;;;14.41;46.51
78667;BME280;67983;59.830;30.198;2023-03-23T10:21:51;99414.59;;;15.13;43.81
78667;BME280;67983;59.830;30.198;2023-03-23T10:24:31;99408.47;;;15.37;43.56
78667;BME280;67983;59.830;30.198;2023-03-23T10:27:11;99428.72;;;15.48;43.55
78667;BME280;67983;59.830;30.198;2023-03-23T10:29:43;99414.22;;;15.75;42.67
78667;BME280;67983;59.830;30.198;2023-03-23T10:32:15;99423.59;;;16.11;42.04
78667;BME280;67983;59.830;30.198;2023-03-23T10:34:47;99422.25;;;16.07;41.59
78667;BME280;67983;59.830;30.198;2023-03-23T10:37:21;99416.50;;;16.67;40.41
78667;BME280;67983;59.830;30.198;2023-03-23T10:39:52;99412.22;;;17.28;39.29
78667;BME280;67983;59.830;30.198;2023-03-23T10:42:25;99431.94;;;17.67;38.85
78667;BME280;67983;59.830;30.198;2023-03-23T10:44:56;99427.13;;;17.85;37.95
78667;BME280;67983;59.830;30.198;2023-03-23T10:47:23;99432.44;;;17.93;36.68
78667;BME280;67983;59.830;30.198;2023-03-23T10:49:56;99432.03;;;17.81;37.01
78667;BME280;67983;59.830;30.198;2023-03-23T10:52:33;99446.72;;;17.31;37.42
78667;BME280;67983;59.830;30.198;2023-03-23T10:55:09;99459.34;;;16.67;38.44
78667;BME280;67983;59.830;30.198;2023-03-23T10:57:41;99460.53;;;16.73;38.06
78667;BME280;67983;59.830;30.198;2023-03-23T11:00:18;99447.84;;;17.06;37.58
78667;BME280;67983;59.830;30.198;2023-03-23T11:02:58;99448.59;;;17.23;37.17
78667;BME280;67983;59.830;30.198;2023-03-23T11:05:36;99441.69;;;17.59;36.27
78667;BME280;67983;59.830;30.198;2023-03-23T11:08:13;99449.63;;;17.53;35.98
78667;BME280;67983;59.830;30.198;2023-03-23T11:10:49;99454.22;;;17.67;36.12
78667;BME280;67983;59.830;30.198;2023-03-23T11:13:21;99442.50;;;17.68;36.00
78667;BME280;67983;59.830;30.198;2023-03-23T11:15:50;99445.81;;;17.47;36.50
78667;BME280;67983;59.830;30.198;2023-03-23T11:18:20;99437.41;;;17.81;35.79
78667;BME280;67983;59.830;30.198;2023-03-23T11:20:51;99442.03;;;17.87;35.59
78667;BME280;67983;59.830;30.198;2023-03-23T11:23:28;99443.88;;;17.33;36.48
78667;BME280;67983;59.830;30.198;2023-03-23T11:26:08;99439.63;;;17.08;37.18
78667;BME280;67983;59.830;30.198;2023-03-23T11:28:37;99424.34;;;16.77;37.60
78667;BME280;67983;59.830;30.198;2023-03-23T11:31:08;99447.63;;;16.77;37.48
78667;BME280;67983;59.830;30.198;2023-03-23T11:33:41;99435.88;;;16.86;37.23
78667;BME280;67983;59.830;30.198;2023-03-23T11:36:12;99450.84;;;17.11;36.32
78667;BME280;67983;59.830;30.198;2023-03-23T11:38:42;99434.72;;;17.19;35.74
78667;BME280;67983;59.830;30.198;2023-03-23T11:41:11;99435.38;;;16.82;36.68
78667;BME280;67983;59.830;30.198;2023-03-23T11:43:41;99434.47;;;16.98;36.68
78667;BME280;67983;59.830;30.198;2023-03-23T11:46:18;99428.06;;;17.07;36.58
78667;BME280;67983;59.830;30.198;2023-03-23T11:48:53;99437.31;;;16.96;36.78
78667;BME280;67983;59.830;30.198;2023-03-23T11:51:28;99418.66;;;16.64;37.68
78667;BME280;67983;59.830;30.198;2023-03-23T11:54:04;99427.44;;;16.25;38.56
78667;BME280;67983;59.830;30.198;2023-03-23T11:56:39;99427.25;;;16.35;38.61
78667;BME280;67983;59.830;30.198;2023-03-23T11:59:33;99406.59;;;16.68;38.27
78667;BME280;67983;59.830;30.198;2023-03-23T12:02:21;99433.22;;;16.61;38.18
78667;BME280;67983;59.830;30.198;2023-03-23T12:04:59;99429.25;;;16.41;38.05
78667;BME280;67983;59.830;30.198;2023-03-23T12:07:49;99419.75;;;16.06;38.55
78667;BME280;67983;59.830;30.198;2023-03-23T12:10:27;99398.84;;;16.26;38.39
78667;BME280;67983;59.830;30.198;2023-03-23T12:13:10;99391.97;;;16.39;37.99
78667;BME280;67983;59.830;30.198;2023-03-23T12:15:53;99391.97;;;16.39;37.69
78667;BME280;67983;59.830;30.198;2023-03-23T12:18:40;99397.13;;;16.41;37.90
78667;BME280;67983;59.830;30.198;2023-03-23T12:21:19;99397.00;;;16.26;38.08
78667;BME280;67983;59.830;30.198;2023-03-23T12:24:00;99406.88;;;16.18;38.19
78667;BME280;67983;59.830;30.198;2023-03-23T12:26:42;99413.91;;;16.10;38.15
78667;BME280;67983;59.830;30.198;2023-03-23T12:29:29;99409.06;;;15.73;38.56
78667;BME280;67983;59.830;30.198;2023-03-23T12:32:19;99418.47;;;15.27;39.60
78667;BME280;67983;59.830;30.198;2023-03-23T12:34:54;99412.50;;;14.91;40.40
78667;BME280;67983;59.830;30.198;2023-03-23T12:37:39;99414.28;;;14.74;40.64
78667;BME280;67983;59.830;30.198;2023-03-23T12:40:32;99426.75;;;14.65;40.88
78667;BME280;67983;59.830;30.198;2023-03-23T12:43:07;99407.81;;;14.51;40.96
78667;BME280;67983;59.830;30.198;2023-03-23T12:49:54;99430.63;;;14.45;41.47
78667;BME280;67983;59.830;30.198;2023-03-23T12:52:32;99423.19;;;14.57;41.59
78667;BME280;67983;59.830;30.198;2023-03-23T12:55:32;99422.97;;;14.84;41.74
78667;BME280;67983;59.830;30.198;2023-03-23T12:58:10;99416.69;;;14.93;41.51
78667;BME280;67983;59.830;30.198;2023-03-23T13:00:53;99423.03;;;14.92;41.55
78667;BME280;67983;59.830;30.198;2023-03-23T13:03:32;99421.69;;;14.88;41.59
78667;BME280;67983;59.830;30.198;2023-03-23T13:06:04;99427.97;;;14.79;41.57
78667;BME280;67983;59.830;30.198;2023-03-23T13:08:40;99416.47;;;14.79;41.73
78667;BME280;67983;59.830;30.198;2023-03-23T13:11:17;99429.31;;;14.83;41.60
78667;BME280;67983;59.830;30.198;2023-03-23T13:13:54;99423.47;;;14.80;41.17
78667;BME280;67983;59.830;30.198;2023-03-23T13:16:31;99418.94;;;14.72;41.39
78667;BME280;67983;59.830;30.198;2023-03-23T13:19:14;99419.81;;;14.55;41.95
78667;BME280;67983;59.830;30.198;2023-03-23T13:21:52;99430.16;;;14.50;42.03
78667;BME280;67983;59.830;30.198;2023-03-23T13:24:30;99423.91;;;14.41;42.06
78667;BME280;67983;59.830;30.198;2023-03-23T13:27:05;99424.03;;;14.40;42.02
78667;BME280;67983;59.830;30.198;2023-03-23T13:29:44;99422.69;;;14.35;41.92
78667;BME280;67983;59.830;30.198;2023-03-23T13:32:15;99425.31;;;14.27;41.99
78667;BME280;67983;59.830;30.198;2023-03-23T13:34:46;99436.91;;;14.18;41.99
78667;BME280;67983;59.830;30.198;2023-03-23T13:37:21;99430.38;;;14.13;42.17
78667;BME280;67983;59.830;30.198;2023-03-23T13:39:52;99429.47;;;14.04;42.22
78667;BME280;67983;59.830;30.198;2023-03-23T13:42:30;99439.00;;;13.89;42.33
78667;BME280;67983;59.830;30.198;2023-03-23T13:45:19;99430.28;;;13.79;42.80
78667;BME280;67983;59.830;30.198;2023-03-23T13:48:03;99429.13;;;13.81;43.10
78667;BME280;67983;59.830;30.198;2023-03-23T13:50:44;99434.06;;;13.76;43.19
78667;BME280;67983;59.830;30.198;2023-03-23T13:53:23;99438.41;;;13.77;43.30
78667;BME280;67983;59.830;30.198;2023-03-23T13:56:03;99443.91;;;13.75;43.51
78667;BME280;67983;59.830;30.198;2023-03-23T13:58:44;99427.47;;;13.80;43.37
78667;BME280;67983;59.830;30.198;2023-03-23T14:06:04;99429.44;;;14.22;42.82
78667;BME280;67983;59.830;30.198;2023-03-23T14:09:04;99427.25;;;15.03;41.41
78667;BME280;67983;59.830;30.198;2023-03-23T14:11:45;99426.78;;;15.74;41.15
78667;BME280;67983;59.830;30.198;2023-03-23T14:14:23;99421.06;;;15.77;39.82
78667;BME280;67983;59.830;30.198;2023-03-23T14:17:05;99430.69;;;15.46;40.29
78667;BME280;67983;59.830;30.198;2023-03-23T14:19:44;99431.66;;;15.20;40.22
78667;BME280;67983;59.830;30.198;2023-03-23T14:22:24;99422.19;;;14.92;40.63
78667;BME280;67983;59.830;30.198;2023-03-23T14:25:00;99434.81;;;14.82;40.70
78667;BME280;67983;59.830;30.198;2023-03-23T14:27:37;99437.31;;;14.75;41.09